Rina Amoretti — IBRR — position and weather

sailwx.info

Track history (hours):
 
Tides and Currents Weather Stations Pressure Air Temp Water Temp Dewpoint Dewpoint Depression Visibility Wind Speed Wind Dir Waves Ship Positions

Rina Amoretti

Last reported at 2016-Jul-24 02:33 UTC. Time now 2016-Jul-25 04:20 UTC.
Position N 37°15' E 015°19'.

Length 120 m; draft 6.5 m.

Type: Tanker. MMSI: 247197000.

Date/timePositionNaut miles runAvg speedWind from/ knotsBaromVisibWave heightAir tempDewpointWater temp
2016-Jul-24 02:33N 37°15' E 015°19'1413.7
2016-Jul-24 01:33N 37°29' E 015°23'1414.0
2016-Jul-24 00:33N 37°43' E 015°26'1414.4
2016-Jul-23 23:33N 37°56' E 015°31'1414.0
2016-Jul-23 22:33N 38°10' E 015°35'1312.8
2016-Jul-23 21:33N 38°22' E 015°38'1414.1
2016-Jul-23 20:33N 38°36' E 015°31'1414.1
2016-Jul-23 19:33N 38°48' E 015°24'1414.2
2016-Jul-23 18:33N 39°01' E 015°15'1414.3
2016-Jul-23 17:33N 39°13' E 015°06'1414.2
2016-Jul-23 16:33N 39°26' E 014°57'1514.4
2016-Jul-23 15:31N 39°39' E 014°48'1414.3
2016-Jul-23 14:31N 39°51' E 014°38'1414.6
2016-Jul-23 13:33N 40°03' E 014°29'1514.7
2016-Jul-23 12:33N 40°16' E 014°20'1514.8
2016-Jul-23 11:34N 40°29' E 014°10'1312.9
2016-Jul-23 10:33N 40°42' E 014°14'9 8.8
2016-Jul-23 09:31N 40°50' E 014°17'0 0.0
2016-Jul-23 08:31N 40°50' E 014°17'0 0.0
2016-Jul-23 07:31N 40°50' E 014°17'0 0.0
2016-Jul-23 06:31N 40°50' E 014°17'0 0.0
2016-Jul-23 04:31N 40°50' E 014°17'0 0.0
2016-Jul-23 03:31N 40°50' E 014°17'0 0.0
2016-Jul-23 02:31N 40°50' E 014°17'0 0.0
2016-Jul-23 01:31N 40°50' E 014°17'0 0.0
2016-Jul-23 00:31N 40°50' E 014°17'0 0.0
2016-Jul-22 23:31N 40°50' E 014°17'0 0.0
2016-Jul-22 22:31N 40°50' E 014°17'0 0.0
2016-Jul-22 21:31N 40°50' E 014°17'0 0.0
2016-Jul-22 20:31N 40°50' E 014°17'0 0.0
2016-Jul-22 19:31N 40°50' E 014°17'0 0.0
2016-Jul-22 18:31N 40°50' E 014°17'0 0.0
2016-Jul-22 17:31N 40°50' E 014°17'0 0.0
2016-Jul-22 16:33N 40°50' E 014°17'3 3.1
2016-Jul-22 15:34N 40°47' E 014°16'1413.7
2016-Jul-22 14:33N 40°39' E 014°02'1513.8
2016-Jul-22 13:28N 40°40' E 013°42'1313.9
2016-Jul-22 12:33N 40°42' E 013°26'1413.9
2016-Jul-22 11:33N 40°45' E 013°08'1413.7
2016-Jul-22 10:33N 40°51' E 012°51'1413.6
2016-Jul-22 09:33N 40°57' E 012°35'1313.3
2016-Jul-22 08:33N 41°05' E 012°21'1313.3
2016-Jul-22 07:34N 41°14' E 012°08'4113.6
2016-Jul-22 04:34N 41°42' E 011°28'1413.7
2016-Jul-22 03:33N 41°51' E 011°15'1413.6
2016-Jul-22 02:33N 42°00' E 011°02'1713.8
2016-Jul-22 01:19N 42°12' E 010°45'1314.1
2016-Jul-22 00:22N 42°21' E 010°32'1113.1
2016-Jul-21 23:31N 42°29' E 010°22'1414.2
2016-Jul-21 22:33N 42°39' E 010°09'1414.2
2016-Jul-21 21:33N 42°49' E 009°54'1413.7
2016-Jul-21 20:33N 42°59' E 009°41'1313.3
2016-Jul-21 19:33N 43°10' E 009°31'1313.2
2016-Jul-21 18:33N 43°21' E 009°21'1413.6
2016-Jul-21 17:33N 43°32' E 009°10'1313.5
2016-Jul-21 16:33N 43°43' E 008°60'1313.4
2016-Jul-21 15:33N 43°54' E 008°49'1413.6
2016-Jul-21 14:33N 44°05' E 008°39'1313.4
2016-Jul-21 13:33N 44°16' E 008°28'1 0.7
2016-Jul-21 12:31N 44°16' E 008°27'0 0.0
2016-Jul-21 11:31N 44°16' E 008°27'0 0.0
2016-Jul-21 10:31N 44°16' E 008°27'0 0.0
2016-Jul-21 09:28N 44°16' E 008°27'0 0.0
2016-Jul-21 08:31N 44°16' E 008°27'0 0.0
2016-Jul-21 07:28N 44°16' E 008°27'0 0.0
2016-Jul-21 06:31N 44°16' E 008°27'0 0.0
2016-Jul-21 05:31N 44°16' E 008°27'0 0.0
2016-Jul-21 04:31N 44°16' E 008°27'0 0.0
2016-Jul-21 03:34N 44°16' E 008°27'0 0.0
2016-Jul-21 02:33N 44°16' E 008°27'0 0.0
2016-Jul-21 01:33N 44°16' E 008°27'0 0.0
2016-Jul-21 00:33N 44°16' E 008°27'0 0.0
2016-Jul-20 23:33N 44°16' E 008°27'0 0.0
2016-Jul-20 22:33N 44°16' E 008°27'0 0.0
2016-Jul-20 21:33N 44°16' E 008°27'0 0.0
2016-Jul-20 20:33N 44°16' E 008°27'0 0.0
2016-Jul-20 19:33N 44°16' E 008°27'0 0.0
2016-Jul-20 18:33N 44°16' E 008°27'0 0.0
2016-Jul-20 17:33N 44°16' E 008°27'0 0.0
2016-Jul-20 16:33N 44°16' E 008°27'0 0.0
2016-Jul-20 15:33N 44°16' E 008°27'0 0.0
2016-Jul-20 14:33N 44°16' E 008°27'0 0.0
2016-Jul-20 13:33N 44°16' E 008°27'0 0.0
2016-Jul-20 12:33N 44°16' E 008°27'0 0.0
2016-Jul-20 11:28N 44°16' E 008°27'0 0.0
2016-Jul-20 10:30N 44°16' E 008°27'0 0.0
2016-Jul-20 09:33N 44°16' E 008°27'0 0.0
2016-Jul-20 08:33N 44°16' E 008°27'0 0.1
2016-Jul-20 07:33N 44°16' E 008°27'4 4.1
2016-Jul-20 06:34N 44°14' E 008°31'1313.1
2016-Jul-20 05:33N 44°03' E 008°41'1313.3
2016-Jul-20 04:34N 43°52' E 008°52'1312.8
2016-Jul-20 03:33N 43°42' E 009°03'1413.8
2016-Jul-20 02:33N 43°30' E 009°13'1515.0
2016-Jul-20 01:33N 43°18' E 009°24'1514.9
2016-Jul-20 00:33N 43°05' E 009°35'1414.2
2016-Jul-19 23:33N 42°52' E 009°42'2014.0
2016-Jul-19 22:07N 42°33' E 009°51'813.7
2016-Jul-19 21:33N 42°25' E 009°55'1313.4
2016-Jul-19 20:33N 42°13' E 010°02'1414.1
2016-Jul-19 19:33N 42°01' E 010°13'1414.2
2016-Jul-19 18:33N 41°49' E 010°23'1414.2
2016-Jul-19 17:33N 41°38' E 010°34'1414.4
2016-Jul-19 16:33N 41°25' E 010°44'1614.3
2016-Jul-19 15:28N 41°12' E 010°55'1314.8
2016-Jul-19 14:34N 41°01' E 011°05'1514.7
2016-Jul-19 13:33N 40°49' E 011°15'1414.0
2016-Jul-19 12:33N 40°37' E 011°25'1514.0
2016-Jul-19 11:27N 40°24' E 011°36'1313.8
2016-Jul-19 10:32N 40°13' E 011°45'1913.8
2016-Jul-19 09:11N 39°57' E 011°58'913.6
2016-Jul-19 08:33N 39°50' E 012°04'1413.9
2016-Jul-19 07:34N 39°39' E 012°14'4214.0
2016-Jul-19 04:34N 39°03' E 012°43'1514.3
2016-Jul-19 03:29N 38°50' E 012°53'1414.8
2016-Jul-19 02:34N 38°39' E 013°03'1514.8
2016-Jul-19 01:34N 38°27' E 013°15'1414.3
2016-Jul-19 00:34N 38°15' E 013°25'9 9.0
2016-Jul-18 23:31N 38°06' E 013°26'0 0.1
2016-Jul-18 22:31N 38°06' E 013°26'0 0.0
2016-Jul-18 21:31N 38°06' E 013°26'0 0.0
2016-Jul-18 20:31N 38°06' E 013°26'0 0.0
2016-Jul-18 19:31N 38°06' E 013°26'0 0.0
2016-Jul-18 18:31N 38°06' E 013°26'0 0.0
2016-Jul-18 17:31N 38°06' E 013°26'0 0.0
2016-Jul-18 16:31N 38°06' E 013°26'0 0.0
2016-Jul-18 15:31N 38°06' E 013°26'0 0.0
2016-Jul-18 14:31N 38°06' E 013°26'0 0.0
2016-Jul-18 13:31N 38°06' E 013°26'0 0.0
2016-Jul-18 12:34N 38°06' E 013°26'0 0.0
2016-Jul-18 11:33N 38°06' E 013°26'0 0.0
2016-Jul-18 10:33N 38°06' E 013°26'0 0.0
2016-Jul-18 09:33N 38°06' E 013°26'0 0.0
2016-Jul-18 08:33N 38°06' E 013°26'0 0.0
2016-Jul-18 07:33N 38°06' E 013°26'0 0.0
2016-Jul-18 06:33N 38°06' E 013°26'0 0.0
2016-Jul-18 05:33N 38°06' E 013°26'1 1.0
2016-Jul-18 04:32N 38°07' E 013°26'0 0.0
2016-Jul-18 03:32N 38°07' E 013°26'0 0.0
2016-Jul-18 02:32N 38°07' E 013°26'0 0.0
2016-Jul-18 01:32N 38°07' E 013°26'0 0.0
2016-Jul-18 00:29N 38°07' E 013°26'0 0.0
2016-Jul-17 23:29N 38°07' E 013°26'0 0.0
2016-Jul-17 22:29N 38°07' E 013°26'0 0.0
2016-Jul-17 21:32N 38°07' E 013°26'0 0.0
2016-Jul-17 20:32N 38°07' E 013°26'0 0.0
2016-Jul-17 19:32N 38°07' E 013°26'0 0.0
2016-Jul-17 18:32N 38°07' E 013°26'0 0.0
2016-Jul-17 17:32N 38°07' E 013°26'0 0.0
2016-Jul-17 16:32N 38°07' E 013°26'0 0.0
2016-Jul-17 15:32N 38°07' E 013°26'0 0.0
2016-Jul-17 14:32N 38°07' E 013°26'0 0.0
2016-Jul-17 13:32N 38°07' E 013°26'0 0.0
2016-Jul-17 12:32N 38°07' E 013°26'0 0.0
2016-Jul-17 11:32N 38°07' E 013°26'0 0.0
2016-Jul-17 10:32N 38°07' E 013°26'0 0.0
2016-Jul-17 09:32N 38°07' E 013°26'0 0.0
2016-Jul-17 08:32N 38°07' E 013°26'0 0.0
2016-Jul-17 07:29N 38°07' E 013°26'0 0.0
2016-Jul-17 06:26N 38°07' E 013°26'0 0.0
2016-Jul-17 04:26N 38°07' E 013°26'0 0.0
2016-Jul-17 03:29N 38°07' E 013°26'0 0.0
2016-Jul-17 02:29N 38°07' E 013°26'0 0.0
2016-Jul-17 01:29N 38°07' E 013°26'0 0.0
2016-Jul-16 23:29N 38°07' E 013°26'0 0.0
2016-Jul-16 22:32N 38°07' E 013°26'0 0.0
2016-Jul-16 21:32N 38°07' E 013°26'0 0.0
2016-Jul-16 20:31N 38°07' E 013°26'0 0.0
2016-Jul-16 19:31N 38°07' E 013°26'0 0.0
2016-Jul-16 18:19N 38°07' E 013°26'0 0.0
2016-Jul-16 17:28N 38°07' E 013°26'0 0.0
2016-Jul-16 16:31N 38°07' E 013°26'0 0.0
2016-Jul-16 15:31N 38°07' E 013°26'0 0.0
2016-Jul-16 14:31N 38°07' E 013°26'0 0.0
2016-Jul-16 13:31N 38°07' E 013°26'0 0.0
2016-Jul-16 12:22N 38°07' E 013°26'0 0.0
2016-Jul-16 11:19N 38°07' E 013°26'0 0.0
2016-Jul-16 10:07N 38°07' E 013°26'0 0.0
2016-Jul-16 09:22N 38°07' E 013°26'0 0.0
2016-Jul-16 08:25N 38°07' E 013°26'0 0.0
2016-Jul-16 07:25N 38°07' E 013°26'0 0.0
2016-Jul-16 06:25N 38°07' E 013°26'0 0.0
2016-Jul-16 04:28N 38°07' E 013°26'0 0.0
2016-Jul-16 03:28N 38°07' E 013°26'0 0.0
2016-Jul-16 02:31N 38°07' E 013°26'0 0.0
2016-Jul-16 01:31N 38°07' E 013°26'0 0.0
2016-Jul-16 00:31N 38°07' E 013°26'0 0.0
2016-Jul-15 23:31N 38°07' E 013°26'0 0.0
2016-Jul-15 22:31N 38°07' E 013°26'0 0.0
2016-Jul-15 21:31N 38°07' E 013°26'0 0.0
2016-Jul-15 20:31N 38°07' E 013°26'0 0.0
2016-Jul-15 19:31N 38°07' E 013°26'0 0.0
2016-Jul-15 18:31N 38°07' E 013°26'0 0.0
2016-Jul-15 17:31N 38°07' E 013°26'0 0.0
2016-Jul-15 16:31N 38°07' E 013°26'0 0.0
2016-Jul-15 15:31N 38°07' E 013°26'0 0.0
2016-Jul-15 14:31N 38°07' E 013°26'0 0.0
2016-Jul-15 13:28N 38°07' E 013°26'0 0.1
2016-Jul-15 12:31N 38°07' E 013°26'0 0.0
2016-Jul-15 11:31N 38°07' E 013°26'0 0.0
2016-Jul-15 10:31N 38°07' E 013°26'0 0.0
2016-Jul-15 09:31N 38°07' E 013°26'0 0.0
2016-Jul-15 08:31N 38°07' E 013°26'0 0.0
2016-Jul-15 07:34N 38°07' E 013°26'0 0.0
2016-Jul-15 06:27N 38°07' E 013°26'0 0.0
2016-Jul-15 05:27N 38°07' E 013°26'0 0.0
2016-Jul-15 04:27N 38°07' E 013°26'0 0.0
2016-Jul-15 03:12N 38°07' E 013°26'0 0.0
2016-Jul-15 02:30N 38°07' E 013°26'0 0.0
2016-Jul-15 01:30N 38°07' E 013°26'0 0.0
2016-Jul-15 00:15N 38°07' E 013°26'0 0.0
2016-Jul-14 23:15N 38°07' E 013°26'0 0.0
2016-Jul-14 22:30N 38°07' E 013°26'0 0.0
2016-Jul-14 21:33N 38°07' E 013°26'0 0.0
2016-Jul-14 20:33N 38°07' E 013°26'0 0.0
2016-Jul-14 19:33N 38°07' E 013°26'0 0.0
2016-Jul-14 18:03N 38°07' E 013°26'0 0.0
2016-Jul-14 17:33N 38°07' E 013°26'0 0.0
2016-Jul-14 16:33N 38°07' E 013°26'0 0.0
2016-Jul-14 15:33N 38°07' E 013°26'0 0.0
2016-Jul-14 14:21N 38°07' E 013°26'0 0.0
2016-Jul-14 13:33N 38°07' E 013°26'0 0.0
2016-Jul-14 12:21N 38°07' E 013°26'6 7.1
2016-Jul-14 11:33N 38°09' E 013°33'3514.1
2016-Jul-14 09:05N 38°13' E 014°17'814.4
2016-Jul-14 08:33N 38°14' E 014°26'1414.0
2016-Jul-14 07:34N 38°16' E 014°44'1413.6
2016-Jul-14 06:34N 38°17' E 015°01'1313.2
2016-Jul-14 05:33N 38°18' E 015°18'1313.0
2016-Jul-14 04:33N 38°20' E 015°34'6 6.3
2016-Jul-14 03:33N 38°14' E 015°38'1111.3
2016-Jul-14 02:33N 38°03' E 015°35'  
Track history (hours):
 
Tides and Currents Weather Stations Pressure Air Temp Water Temp Dewpoint Dewpoint Depression Visibility Wind Speed Wind Dir Waves Ship Positions

Rina Amoretti

Last reported at 2016-Jul-24 02:33 UTC. Time now 2016-Jul-25 04:20 UTC.
Position N 37°15' E 015°19'.

Length 120 m; draft 6.5 m.

Type: Tanker. MMSI: 247197000.

Date/timePositionNaut miles runAvg speedWind from/ knotsBaromVisibWave heightAir tempDewpointWater temp
2016-Jul-24 02:33N 37°15' E 015°19'1413.7
2016-Jul-24 01:33N 37°29' E 015°23'1414.0
2016-Jul-24 00:33N 37°43' E 015°26'1414.4
2016-Jul-23 23:33N 37°56' E 015°31'1414.0
2016-Jul-23 22:33N 38°10' E 015°35'1312.8
2016-Jul-23 21:33N 38°22' E 015°38'1414.1
2016-Jul-23 20:33N 38°36' E 015°31'1414.1
2016-Jul-23 19:33N 38°48' E 015°24'1414.2
2016-Jul-23 18:33N 39°01' E 015°15'1414.3
2016-Jul-23 17:33N 39°13' E 015°06'1414.2
2016-Jul-23 16:33N 39°26' E 014°57'1514.4
2016-Jul-23 15:31N 39°39' E 014°48'1414.3
2016-Jul-23 14:31N 39°51' E 014°38'1414.6
2016-Jul-23 13:33N 40°03' E 014°29'1514.7
2016-Jul-23 12:33N 40°16' E 014°20'1514.8
2016-Jul-23 11:34N 40°29' E 014°10'1312.9
2016-Jul-23 10:33N 40°42' E 014°14'9 8.8
2016-Jul-23 09:31N 40°50' E 014°17'0 0.0
2016-Jul-23 08:31N 40°50' E 014°17'0 0.0
2016-Jul-23 07:31N 40°50' E 014°17'0 0.0
2016-Jul-23 06:31N 40°50' E 014°17'0 0.0
2016-Jul-23 04:31N 40°50' E 014°17'0 0.0
2016-Jul-23 03:31N 40°50' E 014°17'0 0.0
2016-Jul-23 02:31N 40°50' E 014°17'0 0.0
2016-Jul-23 01:31N 40°50' E 014°17'0 0.0
2016-Jul-23 00:31N 40°50' E 014°17'0 0.0
2016-Jul-22 23:31N 40°50' E 014°17'0 0.0
2016-Jul-22 22:31N 40°50' E 014°17'0 0.0
2016-Jul-22 21:31N 40°50' E 014°17'0 0.0
2016-Jul-22 20:31N 40°50' E 014°17'0 0.0
2016-Jul-22 19:31N 40°50' E 014°17'0 0.0
2016-Jul-22 18:31N 40°50' E 014°17'0 0.0
2016-Jul-22 17:31N 40°50' E 014°17'0 0.0
2016-Jul-22 16:33N 40°50' E 014°17'3 3.1
2016-Jul-22 15:34N 40°47' E 014°16'1413.7
2016-Jul-22 14:33N 40°39' E 014°02'1513.8
2016-Jul-22 13:28N 40°40' E 013°42'1313.9
2016-Jul-22 12:33N 40°42' E 013°26'1413.9
2016-Jul-22 11:33N 40°45' E 013°08'1413.7
2016-Jul-22 10:33N 40°51' E 012°51'1413.6
2016-Jul-22 09:33N 40°57' E 012°35'1313.3
2016-Jul-22 08:33N 41°05' E 012°21'1313.3
2016-Jul-22 07:34N 41°14' E 012°08'4113.6
2016-Jul-22 04:34N 41°42' E 011°28'1413.7
2016-Jul-22 03:33N 41°51' E 011°15'1413.6
2016-Jul-22 02:33N 42°00' E 011°02'1713.8
2016-Jul-22 01:19N 42°12' E 010°45'1314.1
2016-Jul-22 00:22N 42°21' E 010°32'1113.1
2016-Jul-21 23:31N 42°29' E 010°22'1414.2
2016-Jul-21 22:33N 42°39' E 010°09'1414.2
2016-Jul-21 21:33N 42°49' E 009°54'1413.7
2016-Jul-21 20:33N 42°59' E 009°41'1313.3
2016-Jul-21 19:33N 43°10' E 009°31'1313.2
2016-Jul-21 18:33N 43°21' E 009°21'1413.6
2016-Jul-21 17:33N 43°32' E 009°10'1313.5
2016-Jul-21 16:33N 43°43' E 008°60'1313.4
2016-Jul-21 15:33N 43°54' E 008°49'1413.6
2016-Jul-21 14:33N 44°05' E 008°39'1313.4
2016-Jul-21 13:33N 44°16' E 008°28'1 0.7
2016-Jul-21 12:31N 44°16' E 008°27'0 0.0
2016-Jul-21 11:31N 44°16' E 008°27'0 0.0
2016-Jul-21 10:31N 44°16' E 008°27'0 0.0
2016-Jul-21 09:28N 44°16' E 008°27'0 0.0
2016-Jul-21 08:31N 44°16' E 008°27'0 0.0
2016-Jul-21 07:28N 44°16' E 008°27'0 0.0
2016-Jul-21 06:31N 44°16' E 008°27'0 0.0
2016-Jul-21 05:31N 44°16' E 008°27'0 0.0
2016-Jul-21 04:31N 44°16' E 008°27'0 0.0
2016-Jul-21 03:34N 44°16' E 008°27'0 0.0
2016-Jul-21 02:33N 44°16' E 008°27'0 0.0
2016-Jul-21 01:33N 44°16' E 008°27'0 0.0
2016-Jul-21 00:33N 44°16' E 008°27'0 0.0
2016-Jul-20 23:33N 44°16' E 008°27'0 0.0
2016-Jul-20 22:33N 44°16' E 008°27'0 0.0
2016-Jul-20 21:33N 44°16' E 008°27'0 0.0
2016-Jul-20 20:33N 44°16' E 008°27'0 0.0
2016-Jul-20 19:33N 44°16' E 008°27'0 0.0
2016-Jul-20 18:33N 44°16' E 008°27'0 0.0
2016-Jul-20 17:33N 44°16' E 008°27'0 0.0
2016-Jul-20 16:33N 44°16' E 008°27'0 0.0
2016-Jul-20 15:33N 44°16' E 008°27'0 0.0
2016-Jul-20 14:33N 44°16' E 008°27'0 0.0
2016-Jul-20 13:33N 44°16' E 008°27'0 0.0
2016-Jul-20 12:33N 44°16' E 008°27'0 0.0
2016-Jul-20 11:28N 44°16' E 008°27'0 0.0
2016-Jul-20 10:30N 44°16' E 008°27'0 0.0
2016-Jul-20 09:33N 44°16' E 008°27'0 0.0
2016-Jul-20 08:33N 44°16' E 008°27'0 0.1
2016-Jul-20 07:33N 44°16' E 008°27'4 4.1
2016-Jul-20 06:34N 44°14' E 008°31'1313.1
2016-Jul-20 05:33N 44°03' E 008°41'1313.3
2016-Jul-20 04:34N 43°52' E 008°52'1312.8
2016-Jul-20 03:33N 43°42' E 009°03'1413.8
2016-Jul-20 02:33N 43°30' E 009°13'1515.0
2016-Jul-20 01:33N 43°18' E 009°24'1514.9
2016-Jul-20 00:33N 43°05' E 009°35'1414.2
2016-Jul-19 23:33N 42°52' E 009°42'2014.0
2016-Jul-19 22:07N 42°33' E 009°51'813.7
2016-Jul-19 21:33N 42°25' E 009°55'1313.4
2016-Jul-19 20:33N 42°13' E 010°02'1414.1
2016-Jul-19 19:33N 42°01' E 010°13'1414.2
2016-Jul-19 18:33N 41°49' E 010°23'1414.2
2016-Jul-19 17:33N 41°38' E 010°34'1414.4
2016-Jul-19 16:33N 41°25' E 010°44'1614.3
2016-Jul-19 15:28N 41°12' E 010°55'1314.8
2016-Jul-19 14:34N 41°01' E 011°05'1514.7
2016-Jul-19 13:33N 40°49' E 011°15'1414.0
2016-Jul-19 12:33N 40°37' E 011°25'1514.0
2016-Jul-19 11:27N 40°24' E 011°36'1313.8
2016-Jul-19 10:32N 40°13' E 011°45'1913.8
2016-Jul-19 09:11N 39°57' E 011°58'913.6
2016-Jul-19 08:33N 39°50' E 012°04'1413.9
2016-Jul-19 07:34N 39°39' E 012°14'4214.0
2016-Jul-19 04:34N 39°03' E 012°43'1514.3
2016-Jul-19 03:29N 38°50' E 012°53'1414.8
2016-Jul-19 02:34N 38°39' E 013°03'1514.8
2016-Jul-19 01:34N 38°27' E 013°15'1414.3
2016-Jul-19 00:34N 38°15' E 013°25'9 9.0
2016-Jul-18 23:31N 38°06' E 013°26'0 0.1
2016-Jul-18 22:31N 38°06' E 013°26'0 0.0
2016-Jul-18 21:31N 38°06' E 013°26'0 0.0
2016-Jul-18 20:31N 38°06' E 013°26'0 0.0
2016-Jul-18 19:31N 38°06' E 013°26'0 0.0
2016-Jul-18 18:31N 38°06' E 013°26'0 0.0
2016-Jul-18 17:31N 38°06' E 013°26'0 0.0
2016-Jul-18 16:31N 38°06' E 013°26'0 0.0
2016-Jul-18 15:31N 38°06' E 013°26'0 0.0
2016-Jul-18 14:31N 38°06' E 013°26'0 0.0
2016-Jul-18 13:31N 38°06' E 013°26'0 0.0
2016-Jul-18 12:34N 38°06' E 013°26'0 0.0
2016-Jul-18 11:33N 38°06' E 013°26'0 0.0
2016-Jul-18 10:33N 38°06' E 013°26'0 0.0
2016-Jul-18 09:33N 38°06' E 013°26'0 0.0
2016-Jul-18 08:33N 38°06' E 013°26'0 0.0
2016-Jul-18 07:33N 38°06' E 013°26'0 0.0
2016-Jul-18 06:33N 38°06' E 013°26'0 0.0
2016-Jul-18 05:33N 38°06' E 013°26'1 1.0
2016-Jul-18 04:32N 38°07' E 013°26'0 0.0
2016-Jul-18 03:32N 38°07' E 013°26'0 0.0
2016-Jul-18 02:32N 38°07' E 013°26'0 0.0
2016-Jul-18 01:32N 38°07' E 013°26'0 0.0
2016-Jul-18 00:29N 38°07' E 013°26'0 0.0
2016-Jul-17 23:29N 38°07' E 013°26'0 0.0
2016-Jul-17 22:29N 38°07' E 013°26'0 0.0
2016-Jul-17 21:32N 38°07' E 013°26'0 0.0
2016-Jul-17 20:32N 38°07' E 013°26'0 0.0
2016-Jul-17 19:32N 38°07' E 013°26'0 0.0
2016-Jul-17 18:32N 38°07' E 013°26'0 0.0
2016-Jul-17 17:32N 38°07' E 013°26'0 0.0
2016-Jul-17 16:32N 38°07' E 013°26'0 0.0
2016-Jul-17 15:32N 38°07' E 013°26'0 0.0
2016-Jul-17 14:32N 38°07' E 013°26'0 0.0
2016-Jul-17 13:32N 38°07' E 013°26'0 0.0
2016-Jul-17 12:32N 38°07' E 013°26'0 0.0
2016-Jul-17 11:32N 38°07' E 013°26'0 0.0
2016-Jul-17 10:32N 38°07' E 013°26'0 0.0
2016-Jul-17 09:32N 38°07' E 013°26'0 0.0
2016-Jul-17 08:32N 38°07' E 013°26'0 0.0
2016-Jul-17 07:29N 38°07' E 013°26'0 0.0
2016-Jul-17 06:26N 38°07' E 013°26'0 0.0
2016-Jul-17 04:26N 38°07' E 013°26'0 0.0
2016-Jul-17 03:29N 38°07' E 013°26'0 0.0
2016-Jul-17 02:29N 38°07' E 013°26'0 0.0
2016-Jul-17 01:29N 38°07' E 013°26'0 0.0
2016-Jul-16 23:29N 38°07' E 013°26'0 0.0
2016-Jul-16 22:32N 38°07' E 013°26'0 0.0
2016-Jul-16 21:32N 38°07' E 013°26'0 0.0
2016-Jul-16 20:31N 38°07' E 013°26'0 0.0
2016-Jul-16 19:31N 38°07' E 013°26'0 0.0
2016-Jul-16 18:19N 38°07' E 013°26'0 0.0
2016-Jul-16 17:28N 38°07' E 013°26'0 0.0
2016-Jul-16 16:31N 38°07' E 013°26'0 0.0
2016-Jul-16 15:31N 38°07' E 013°26'0 0.0
2016-Jul-16 14:31N 38°07' E 013°26'0 0.0
2016-Jul-16 13:31N 38°07' E 013°26'0 0.0
2016-Jul-16 12:22N 38°07' E 013°26'0 0.0
2016-Jul-16 11:19N 38°07' E 013°26'0 0.0
2016-Jul-16 10:07N 38°07' E 013°26'0 0.0
2016-Jul-16 09:22N 38°07' E 013°26'0 0.0
2016-Jul-16 08:25N 38°07' E 013°26'0 0.0
2016-Jul-16 07:25N 38°07' E 013°26'0 0.0
2016-Jul-16 06:25N 38°07' E 013°26'0 0.0
2016-Jul-16 04:28N 38°07' E 013°26'0 0.0
2016-Jul-16 03:28N 38°07' E 013°26'0 0.0
2016-Jul-16 02:31N 38°07' E 013°26'0 0.0
2016-Jul-16 01:31N 38°07' E 013°26'0 0.0
2016-Jul-16 00:31N 38°07' E 013°26'0 0.0
2016-Jul-15 23:31N 38°07' E 013°26'0 0.0
2016-Jul-15 22:31N 38°07' E 013°26'0 0.0
2016-Jul-15 21:31N 38°07' E 013°26'0 0.0
2016-Jul-15 20:31N 38°07' E 013°26'0 0.0
2016-Jul-15 19:31N 38°07' E 013°26'0 0.0
2016-Jul-15 18:31N 38°07' E 013°26'0 0.0
2016-Jul-15 17:31N 38°07' E 013°26'0 0.0
2016-Jul-15 16:31N 38°07' E 013°26'0 0.0
2016-Jul-15 15:31N 38°07' E 013°26'0 0.0
2016-Jul-15 14:31N 38°07' E 013°26'0 0.0
2016-Jul-15 13:28N 38°07' E 013°26'0 0.1
2016-Jul-15 12:31N 38°07' E 013°26'0 0.0
2016-Jul-15 11:31N 38°07' E 013°26'0 0.0
2016-Jul-15 10:31N 38°07' E 013°26'0 0.0
2016-Jul-15 09:31N 38°07' E 013°26'0 0.0
2016-Jul-15 08:31N 38°07' E 013°26'0 0.0
2016-Jul-15 07:34N 38°07' E 013°26'0 0.0
2016-Jul-15 06:27N 38°07' E 013°26'0 0.0
2016-Jul-15 05:27N 38°07' E 013°26'0 0.0
2016-Jul-15 04:27N 38°07' E 013°26'0 0.0
2016-Jul-15 03:12N 38°07' E 013°26'0 0.0
2016-Jul-15 02:30N 38°07' E 013°26'0 0.0
2016-Jul-15 01:30N 38°07' E 013°26'0 0.0
2016-Jul-15 00:15N 38°07' E 013°26'0 0.0
2016-Jul-14 23:15N 38°07' E 013°26'0 0.0
2016-Jul-14 22:30N 38°07' E 013°26'0 0.0
2016-Jul-14 21:33N 38°07' E 013°26'0 0.0
2016-Jul-14 20:33N 38°07' E 013°26'0 0.0
2016-Jul-14 19:33N 38°07' E 013°26'0 0.0
2016-Jul-14 18:03N 38°07' E 013°26'0 0.0
2016-Jul-14 17:33N 38°07' E 013°26'0 0.0
2016-Jul-14 16:33N 38°07' E 013°26'0 0.0
2016-Jul-14 15:33N 38°07' E 013°26'0 0.0
2016-Jul-14 14:21N 38°07' E 013°26'0 0.0
2016-Jul-14 13:33N 38°07' E 013°26'0 0.0
2016-Jul-14 12:21N 38°07' E 013°26'6 7.1
2016-Jul-14 11:33N 38°09' E 013°33'3514.1
2016-Jul-14 09:05N 38°13' E 014°17'814.4
2016-Jul-14 08:33N 38°14' E 014°26'1414.0
2016-Jul-14 07:34N 38°16' E 014°44'1413.6
2016-Jul-14 06:34N 38°17' E 015°01'1313.2
2016-Jul-14 05:33N 38°18' E 015°18'1313.0
2016-Jul-14 04:33N 38°20' E 015°34'6 6.3
2016-Jul-14 03:33N 38°14' E 015°38'1111.3
2016-Jul-14 02:33N 38°03' E 015°35'  

Dump ship's entire track history